createdAt,value
2019-03-24T00:03:22.117Z,5.71
2019-03-24T00:07:27.027Z,5.70
2019-03-24T00:11:31.921Z,5.58
2019-03-24T00:15:36.822Z,5.54
2019-03-24T00:19:41.805Z,5.36
2019-03-24T00:23:46.706Z,5.31
2019-03-24T00:27:51.618Z,5.30
2019-03-24T00:31:56.511Z,5.31
2019-03-24T00:36:01.412Z,5.25
2019-03-24T00:40:09.609Z,5.23
2019-03-24T00:44:14.512Z,5.21
2019-03-24T00:48:19.417Z,5.08
2019-03-24T00:52:24.308Z,5.01
2019-03-24T00:56:29.207Z,5.04
2019-03-24T01:00:43.233Z,4.95
2019-03-24T01:04:48.132Z,4.85
2019-03-24T01:08:53.039Z,4.85
2019-03-24T01:12:57.941Z,4.77
2019-03-24T01:17:02.843Z,4.70
2019-03-24T01:21:07.750Z,4.71
2019-03-24T01:25:12.793Z,4.80
2019-03-24T01:29:17.691Z,4.76
2019-03-24T01:33:22.589Z,4.71
2019-03-24T01:37:27.493Z,4.64
2019-03-24T01:41:32.395Z,4.62
2019-03-24T01:45:37.300Z,4.63
2019-03-24T01:49:42.197Z,4.57
2019-03-24T01:53:47.086Z,4.47
2019-03-24T01:57:51.988Z,4.47
2019-03-24T02:01:56.893Z,4.48
2019-03-24T02:06:01.803Z,4.40
2019-03-24T02:10:10.338Z,4.39
2019-03-24T02:14:15.177Z,4.32
2019-03-24T02:18:20.084Z,4.21
2019-03-24T02:22:24.995Z,4.12
2019-03-24T02:26:29.888Z,4.17
2019-03-24T02:30:34.800Z,4.16
2019-03-24T02:34:39.769Z,4.16
2019-03-24T02:38:44.673Z,4.28
2019-03-24T02:42:49.579Z,4.35
2019-03-24T02:46:54.519Z,4.43
2019-03-24T02:50:59.384Z,4.46
2019-03-24T02:55:06.428Z,4.28
2019-03-24T02:59:11.329Z,4.21
2019-03-24T03:03:16.235Z,4.16
2019-03-24T03:07:21.152Z,4.11
2019-03-24T03:11:26.049Z,4.04
2019-03-24T03:15:30.959Z,3.96
2019-03-24T03:19:35.865Z,3.89
2019-03-24T03:23:40.773Z,3.80
2019-03-24T03:27:45.687Z,3.84
2019-03-24T03:31:50.582Z,3.89
2019-03-24T03:35:55.479Z,4.05
2019-03-24T03:40:00.845Z,4.21
2019-03-24T03:44:05.876Z,4.29
2019-03-24T03:48:10.772Z,4.32
2019-03-24T03:52:15.685Z,4.34
2019-03-24T03:56:20.577Z,4.30
2019-03-24T04:00:34.187Z,4.15
2019-03-24T04:04:40.158Z,4.10
2019-03-24T04:08:45.062Z,4.22
2019-03-24T04:12:49.974Z,4.42
2019-03-24T04:17:06.281Z,4.73
2019-03-24T04:21:01.465Z,4.97
2019-03-24T04:25:07.107Z,5.05
2019-03-24T04:29:12.019Z,5.24
2019-03-24T04:33:16.930Z,5.48
2019-03-24T04:37:21.822Z,5.66
2019-03-24T04:41:26.742Z,5.86
2019-03-24T04:45:31.627Z,6.05
2019-03-24T04:49:36.554Z,6.23
2019-03-24T04:53:41.445Z,6.40
2019-03-24T04:57:46.348Z,6.54
2019-03-24T05:01:51.255Z,6.67
2019-03-24T05:05:56.327Z,6.79
2019-03-24T05:10:01.234Z,6.90
2019-03-24T05:14:06.129Z,6.96
2019-03-24T05:18:11.033Z,7.02
2019-03-24T05:22:15.941Z,7.04
2019-03-24T05:26:20.849Z,7.12
2019-03-24T05:30:25.756Z,7.18
2019-03-24T05:34:30.652Z,7.24
2019-03-24T05:38:35.558Z,7.30
2019-03-24T05:42:40.465Z,7.36
2019-03-24T05:46:45.442Z,7.43
2019-03-24T05:50:50.339Z,7.50
2019-03-24T05:54:55.232Z,7.52
2019-03-24T05:59:00.136Z,7.57
2019-03-24T06:03:05.040Z,7.64
2019-03-24T06:07:09.949Z,7.72
2019-03-24T06:11:14.860Z,7.83
2019-03-24T06:15:19.763Z,7.92
2019-03-24T06:19:24.656Z,7.98
2019-03-24T06:23:29.556Z,8.11
2019-03-24T06:27:34.466Z,8.19
2019-03-24T06:31:39.366Z,8.26
2019-03-24T06:35:44.261Z,8.41
2019-03-24T06:39:49.173Z,8.55
2019-03-24T06:43:54.096Z,8.64
2019-03-24T06:47:59.001Z,8.67
2019-03-24T06:52:03.976Z,8.71
2019-03-24T06:56:08.860Z,8.76
2019-03-24T07:00:14.002Z,8.80
2019-03-24T07:04:18.906Z,8.92
2019-03-24T07:08:23.813Z,8.95
2019-03-24T07:12:28.727Z,9.03
2019-03-24T07:16:33.620Z,9.15
2019-03-24T07:20:38.533Z,9.21
2019-03-24T07:24:43.436Z,9.17
2019-03-24T07:28:48.345Z,9.16
2019-03-24T07:32:53.315Z,9.15
2019-03-24T07:36:58.218Z,9.31
2019-03-24T07:41:03.118Z,9.38
2019-03-24T07:45:08.464Z,9.23
2019-03-24T07:49:14.386Z,9.23
2019-03-24T07:53:19.322Z,9.36
2019-03-24T07:57:24.215Z,9.32
2019-03-24T08:01:29.135Z,9.48
2019-03-24T08:05:34.110Z,9.45
2019-03-24T08:09:39.015Z,9.47
2019-03-24T08:13:53.310Z,9.44
2019-03-24T08:17:50.500Z,9.53
2019-03-24T08:21:55.405Z,9.59
2019-03-24T08:26:00.316Z,9.75
2019-03-24T08:30:07.258Z,9.83
2019-03-24T08:34:12.161Z,9.82
2019-03-24T08:38:17.131Z,9.86
2019-03-24T08:42:22.039Z,10.02
2019-03-24T08:46:26.946Z,10.21
2019-03-24T08:50:31.872Z,10.14
2019-03-24T08:54:36.781Z,10.09
2019-03-24T08:58:41.686Z,10.18
2019-03-24T09:02:46.593Z,10.24
2019-03-24T09:06:52.328Z,10.33
2019-03-24T09:10:57.246Z,10.61
2019-03-24T09:15:02.164Z,10.69
2019-03-24T09:19:07.067Z,10.66
2019-03-24T09:23:11.982Z,10.73
2019-03-24T09:27:16.889Z,10.81
2019-03-24T09:31:22.767Z,10.92
2019-03-24T09:35:27.705Z,11.09
2019-03-24T09:39:33.676Z,11.18
2019-03-24T09:43:38.590Z,11.36
2019-03-24T09:47:43.501Z,11.40
2019-03-24T09:51:48.412Z,11.40
2019-03-24T09:55:53.320Z,11.59
2019-03-24T09:59:58.217Z,11.66
2019-03-24T10:04:03.141Z,11.77
2019-03-24T10:08:08.054Z,11.92
2019-03-24T10:12:12.967Z,12.19
2019-03-24T10:16:17.870Z,12.48
2019-03-24T10:20:22.774Z,12.67
2019-03-24T10:24:27.683Z,12.91
2019-03-24T10:28:32.600Z,13.06
2019-03-24T10:32:37.519Z,13.33
2019-03-24T10:36:42.417Z,13.30
2019-03-24T10:40:47.326Z,13.32
2019-03-24T10:44:52.239Z,13.41
2019-03-24T10:48:57.147Z,13.46
2019-03-24T10:53:02.631Z,13.24
2019-03-24T10:57:07.543Z,13.11
2019-03-24T11:01:12.444Z,13.05
2019-03-24T11:05:17.363Z,13.16
2019-03-24T11:09:22.275Z,13.32
2019-03-24T11:13:27.189Z,13.27
2019-03-24T11:17:32.094Z,13.34
2019-03-24T11:21:36.995Z,13.40
2019-03-24T11:25:41.909Z,13.49
2019-03-24T11:29:46.812Z,13.63
2019-03-24T11:33:51.726Z,13.70
2019-03-24T11:37:56.627Z,13.83
2019-03-24T11:42:02.510Z,14.14
2019-03-24T11:46:07.417Z,14.33
2019-03-24T11:50:12.667Z,14.49
2019-03-24T11:54:17.582Z,14.36
2019-03-24T11:58:23.568Z,14.15
2019-03-24T12:02:28.467Z,14.30
2019-03-24T12:06:33.379Z,14.40
2019-03-24T12:10:38.434Z,14.16
2019-03-24T12:14:43.342Z,13.98
2019-03-24T12:18:48.254Z,14.37
2019-03-24T12:22:53.160Z,14.94
2019-03-24T12:26:59.149Z,15.02
2019-03-24T12:31:04.061Z,14.91
2019-03-24T12:35:09.391Z,14.82
2019-03-24T12:39:14.305Z,14.85
2019-03-24T12:43:19.964Z,14.93
2019-03-24T12:47:24.908Z,14.90
2019-03-24T12:51:29.821Z,14.90
2019-03-24T12:55:34.730Z,14.91
2019-03-24T12:59:39.642Z,15.00
2019-03-24T13:03:44.557Z,14.94
2019-03-24T13:07:49.478Z,14.82
2019-03-24T13:11:54.394Z,14.71
2019-03-24T13:15:59.455Z,14.49
2019-03-24T13:20:19.578Z,14.59
2019-03-24T13:24:15.514Z,14.40
2019-03-24T13:28:20.437Z,14.23
2019-03-24T13:32:25.338Z,14.12
2019-03-24T13:36:30.239Z,14.05
2019-03-24T13:40:35.153Z,14.01
2019-03-24T13:44:40.063Z,13.65
2019-03-24T13:48:44.975Z,13.16
2019-03-24T13:52:49.887Z,12.98
2019-03-24T13:56:54.792Z,12.89
2019-03-24T14:00:59.698Z,12.85
2019-03-24T14:05:04.748Z,12.84
2019-03-24T14:09:11.135Z,12.91
2019-03-24T14:13:16.043Z,13.01
2019-03-24T14:17:20.947Z,13.10
2019-03-24T14:21:25.858Z,13.11
2019-03-24T14:25:30.770Z,13.10
2019-03-24T14:29:35.683Z,13.09
2019-03-24T14:33:40.593Z,13.04
2019-03-24T14:37:45.500Z,13.10
2019-03-24T14:41:50.414Z,13.32
2019-03-24T14:45:55.325Z,13.27
2019-03-24T14:50:00.331Z,13.14
2019-03-24T14:54:05.228Z,13.02
2019-03-24T14:58:10.131Z,13.08
2019-03-24T15:02:15.042Z,13.02
2019-03-24T15:06:19.950Z,13.00
2019-03-24T15:10:24.864Z,12.95
2019-03-24T15:14:29.773Z,12.77
2019-03-24T15:18:34.815Z,12.71
2019-03-24T15:22:39.726Z,12.77
2019-03-24T15:26:44.637Z,12.73
2019-03-24T15:30:49.545Z,12.76
2019-03-24T15:34:54.459Z,12.73
2019-03-24T15:38:59.364Z,12.66
2019-03-24T15:43:04.563Z,12.59
2019-03-24T15:47:09.566Z,12.60
2019-03-24T15:51:17.195Z,12.56
2019-03-24T15:55:21.069Z,12.47
2019-03-24T15:59:25.949Z,12.44
2019-03-24T16:03:30.861Z,12.46
2019-03-24T16:07:35.771Z,12.62
2019-03-24T16:11:40.677Z,12.80
2019-03-24T16:15:45.592Z,12.74
2019-03-24T16:19:50.493Z,12.55
2019-03-24T16:23:55.401Z,12.44
2019-03-24T16:28:00.322Z,12.42
2019-03-24T16:32:05.236Z,12.40
2019-03-24T16:36:10.146Z,12.40
2019-03-24T16:40:15.066Z,12.35
2019-03-24T16:44:19.970Z,12.36
2019-03-24T16:48:24.873Z,12.41
2019-03-24T16:52:29.774Z,12.44
2019-03-24T16:56:34.680Z,12.47
2019-03-24T17:00:39.590Z,12.53
2019-03-24T17:04:44.494Z,12.44
2019-03-24T17:08:49.393Z,12.33
2019-03-24T17:12:54.291Z,12.11
2019-03-24T17:16:59.193Z,11.87
2019-03-24T17:21:04.115Z,11.71
2019-03-24T17:25:09.346Z,11.52
2019-03-24T17:29:14.275Z,11.33
2019-03-24T17:33:19.173Z,11.17
2019-03-24T17:37:24.088Z,11.05
2019-03-24T17:41:29.008Z,10.92
2019-03-24T17:45:34.050Z,10.82
2019-03-24T17:49:38.953Z,10.70
2019-03-24T17:53:43.869Z,10.55
2019-03-24T17:57:48.782Z,10.61
2019-03-24T18:01:53.682Z,10.57
2019-03-24T18:05:59.708Z,10.47
2019-03-24T18:10:05.818Z,10.39
2019-03-24T18:14:11.801Z,10.31
2019-03-24T18:18:16.718Z,10.21
2019-03-24T18:22:22.064Z,10.13
2019-03-24T18:26:26.974Z,10.04
2019-03-24T18:30:31.887Z,9.96
2019-03-24T18:34:36.796Z,9.87
2019-03-24T18:38:41.691Z,9.78
2019-03-24T18:42:46.768Z,9.68
2019-03-24T18:46:51.733Z,9.56
2019-03-24T18:50:56.624Z,9.49
2019-03-24T18:55:01.525Z,9.37
2019-03-24T18:59:06.419Z,9.29
2019-03-24T19:03:11.320Z,9.40
2019-03-24T19:07:16.215Z,9.48
2019-03-24T19:11:21.113Z,9.51
2019-03-24T19:15:26.080Z,9.56
2019-03-24T19:19:30.973Z,9.56
2019-03-24T19:23:35.854Z,9.43
2019-03-24T19:27:40.786Z,9.47
2019-03-24T19:31:45.674Z,9.36
2019-03-24T19:35:50.746Z,9.15
2019-03-24T19:39:55.716Z,9.00
2019-03-24T19:44:00.608Z,8.86
2019-03-24T19:48:05.645Z,8.70
2019-03-24T19:52:10.541Z,8.56
2019-03-24T19:56:15.435Z,8.48
2019-03-24T20:00:20.393Z,8.40
2019-03-24T20:04:25.273Z,8.32
2019-03-24T20:08:31.145Z,8.26
2019-03-24T20:12:36.030Z,8.18
2019-03-24T20:16:40.933Z,8.08
2019-03-24T20:20:45.808Z,7.95
2019-03-24T20:24:50.702Z,7.86
2019-03-24T20:28:55.596Z,7.83
2019-03-24T20:33:00.485Z,7.77
2019-03-24T20:37:05.386Z,7.66
2019-03-24T20:41:10.272Z,7.60
2019-03-24T20:45:15.157Z,7.53
2019-03-24T20:49:20.071Z,7.48
2019-03-24T20:53:24.950Z,7.40
2019-03-24T20:57:29.845Z,7.30
2019-03-24T21:01:34.738Z,7.37
2019-03-24T21:05:39.700Z,7.55
2019-03-24T21:09:46.604Z,7.40
2019-03-24T21:13:51.246Z,7.23
2019-03-24T21:17:56.133Z,7.07
2019-03-24T21:22:01.027Z,6.95
2019-03-24T21:26:05.918Z,6.87
2019-03-24T21:30:11.842Z,6.79
2019-03-24T21:34:16.738Z,6.70
2019-03-24T21:38:21.629Z,6.61
2019-03-24T21:42:26.514Z,6.55
2019-03-24T21:46:31.406Z,6.50
2019-03-24T21:50:36.291Z,6.43
2019-03-24T21:54:41.182Z,6.38
2019-03-24T21:58:46.069Z,6.33
2019-03-24T22:02:50.959Z,6.25
2019-03-24T22:06:55.849Z,6.21
2019-03-24T22:11:00.727Z,6.14
2019-03-24T22:15:09.303Z,6.12
2019-03-24T22:19:14.189Z,6.06
2019-03-24T22:23:20.050Z,6.04
2019-03-24T22:27:24.943Z,6.02
2019-03-24T22:31:29.825Z,6.00
2019-03-24T22:35:34.720Z,5.98
2019-03-24T22:39:39.621Z,6.00
2019-03-24T22:43:44.507Z,5.98
2019-03-24T22:47:49.391Z,5.94
2019-03-24T22:52:06.598Z,5.91
2019-03-24T22:56:01.820Z,5.88
2019-03-24T23:00:15.764Z,5.84
2019-03-24T23:04:22.258Z,5.83
2019-03-24T23:08:27.157Z,5.81
2019-03-24T23:12:32.042Z,5.77
2019-03-24T23:16:36.939Z,5.75
2019-03-24T23:20:41.827Z,5.70
2019-03-24T23:24:46.717Z,5.64
2019-03-24T23:28:51.609Z,5.58
2019-03-24T23:32:56.495Z,5.52
2019-03-24T23:37:01.390Z,5.43
2019-03-24T23:41:06.290Z,5.37
2019-03-24T23:45:11.826Z,5.36
2019-03-24T23:49:16.717Z,5.36
2019-03-24T23:53:21.600Z,5.35
2019-03-24T23:57:26.485Z,5.33
